createdAt,value
2018-10-02T00:02:22.466Z,100181.33
2018-10-02T00:04:51.261Z,100175.89
2018-10-02T00:07:20.064Z,100179.73
2018-10-02T00:09:48.859Z,100173.73
2018-10-02T00:12:22.802Z,100171.96
2018-10-02T00:14:51.579Z,100164.70
2018-10-02T00:17:20.178Z,100164.88
2018-10-02T00:19:49.047Z,100165.64
2018-10-02T00:22:18.055Z,100161.73
2018-10-02T00:24:47.068Z,100162.11
2018-10-02T00:27:16.109Z,100157.90
2018-10-02T00:29:45.387Z,100154.05
2018-10-02T00:32:14.398Z,100155.36
2018-10-02T00:34:43.180Z,100148.63
2018-10-02T00:37:12.036Z,100144.15
2018-10-02T00:39:40.849Z,100147.50
2018-10-02T00:42:10.788Z,100145.81
2018-10-02T00:44:39.714Z,100142.55
2018-10-02T00:47:08.462Z,100140.70
2018-10-02T00:49:37.342Z,100140.31
2018-10-02T00:52:06.566Z,100137.61
2018-10-02T00:54:35.656Z,100136.02
2018-10-02T00:57:04.432Z,100131.91
2018-10-02T00:59:33.699Z,100133.48
2018-10-02T01:02:02.729Z,100134.33
2018-10-02T01:04:31.923Z,100128.45
2018-10-02T01:07:01.061Z,100132.00
2018-10-02T01:09:29.976Z,100129.55
2018-10-02T01:11:58.704Z,100126.29
2018-10-02T01:14:27.520Z,100123.20
2018-10-02T01:16:56.758Z,100121.69
2018-10-02T01:19:25.786Z,100118.59
2018-10-02T01:21:54.660Z,100120.84
2018-10-02T01:24:23.612Z,100113.56
2018-10-02T01:26:52.610Z,100118.89
2018-10-02T01:29:21.584Z,100109.16
2018-10-02T01:31:50.574Z,100106.80
2018-10-02T01:34:19.258Z,100106.33
2018-10-02T01:36:48.222Z,99989.73
2018-10-02T01:39:17.150Z,100108.43
2018-10-02T01:41:46.027Z,100106.33
2018-10-02T01:44:14.840Z,100108.78
2018-10-02T01:46:43.637Z,100102.11
2018-10-02T01:49:12.618Z,100102.95
2018-10-02T01:51:41.610Z,100105.58
2018-10-02T01:54:10.531Z,100102.95
2018-10-02T01:56:39.381Z,100095.30
2018-10-02T01:59:08.451Z,100100.72
2018-10-02T02:01:37.442Z,100097.16
2018-10-02T02:04:06.276Z,100099.23
2018-10-02T02:06:35.606Z,100096.78
2018-10-02T02:09:05.660Z,100095.67
2018-10-02T02:11:34.806Z,100092.67
2018-10-02T02:14:03.588Z,100089.67
2018-10-02T02:16:32.637Z,100093.40
2018-10-02T02:19:01.863Z,100091.63
2018-10-02T02:21:30.897Z,100085.45
2018-10-02T02:23:59.913Z,100083.97
2018-10-02T02:26:28.849Z,100077.59
2018-10-02T02:28:57.713Z,100076.11
2018-10-02T02:31:26.737Z,100079.66
2018-10-02T02:33:55.536Z,100069.27
2018-10-02T02:36:24.594Z,100068.63
2018-10-02T02:38:53.442Z,100065.08
2018-10-02T02:41:22.380Z,100063.56
2018-10-02T02:43:51.234Z,100055.14
2018-10-02T02:46:19.928Z,100050.45
2018-10-02T02:48:53.952Z,100049.14
2018-10-02T02:51:29.521Z,100048.67
2018-10-02T02:53:58.385Z,100043.06
2018-10-02T02:56:28.029Z,100042.50
2018-10-02T02:58:57.795Z,100046.52
2018-10-02T03:01:26.701Z,100034.82
2018-10-02T03:03:55.460Z,100034.82
2018-10-02T03:06:24.307Z,100033.13
2018-10-02T03:08:53.373Z,100024.92
2018-10-02T03:11:22.115Z,100031.81
2018-10-02T03:13:50.901Z,100029.49
2018-10-02T03:16:19.956Z,100019.86
2018-10-02T03:18:48.758Z,100018.63
2018-10-02T03:21:17.899Z,100019.02
2018-10-02T03:23:46.800Z,100016.86
2018-10-02T03:26:15.687Z,100020.33
2018-10-02T03:28:44.891Z,100021.25
2018-10-02T03:31:13.879Z,100023.78
2018-10-02T03:33:43.054Z,100024.89
2018-10-02T03:36:11.902Z,100020.79
2018-10-02T03:38:40.773Z,100019.39
2018-10-02T03:41:09.800Z,100022.19
2018-10-02T03:43:38.921Z,100021.45
2018-10-02T03:46:08.193Z,100027.42
2018-10-02T03:48:37.373Z,100023.70
2018-10-02T03:51:06.446Z,100023.87
2018-10-02T03:53:35.607Z,100023.23
2018-10-02T03:56:04.629Z,100017.99
2018-10-02T03:58:33.536Z,100018.72
2018-10-02T04:01:02.409Z,100020.61
2018-10-02T04:03:31.212Z,100020.50
2018-10-02T04:06:00.132Z,100016.86
2018-10-02T04:08:29.095Z,100026.20
2018-10-02T04:10:57.837Z,100016.48
2018-10-02T04:13:26.761Z,100010.48
2018-10-02T04:15:55.586Z,100011.24
2018-10-02T04:18:24.219Z,100008.83
2018-10-02T04:20:53.363Z,100008.16
2018-10-02T04:23:22.277Z,100009.47
2018-10-02T04:25:51.245Z,100002.63
2018-10-02T04:28:20.085Z,100001.69
2018-10-02T04:30:49.004Z,99996.57
2018-10-02T04:33:17.893Z,99994.04
2018-10-02T04:35:46.720Z,99998.61
2018-10-02T04:38:15.524Z,99993.37
2018-10-02T04:40:44.272Z,99988.98
2018-10-02T04:43:13.165Z,99990.02
2018-10-02T04:45:42.151Z,99984.20
2018-10-02T04:48:10.890Z,99989.91
2018-10-02T04:50:39.799Z,99990.66
2018-10-02T04:53:08.768Z,99990.83
2018-10-02T04:55:37.958Z,99982.25
2018-10-02T04:58:07.630Z,99982.12
2018-10-02T05:00:36.448Z,99981.02
2018-10-02T05:03:05.304Z,99976.54
2018-10-02T05:05:34.408Z,99979.88
2018-10-02T05:08:03.307Z,99974.09
2018-10-02T05:10:32.361Z,99981.20
2018-10-02T05:13:01.400Z,99976.34
2018-10-02T05:15:30.149Z,99973.55
2018-10-02T05:17:59.287Z,99972.80
2018-10-02T05:20:27.974Z,99969.53
2018-10-02T05:22:56.822Z,99968.31
2018-10-02T05:25:25.662Z,99977.94
2018-10-02T05:27:54.487Z,99985.03
2018-10-02T05:30:23.496Z,99975.95
2018-10-02T05:32:52.275Z,99977.84
2018-10-02T05:35:21.213Z,99978.31
2018-10-02T05:37:50.224Z,99979.80
2018-10-02T05:40:19.199Z,99972.78
2018-10-02T05:42:48.207Z,99970.72
2018-10-02T05:45:17.231Z,99975.32
2018-10-02T05:47:46.121Z,99972.88
2018-10-02T05:50:15.179Z,99964.00
2018-10-02T05:52:43.957Z,99959.79
2018-10-02T05:55:12.702Z,99959.99
2018-10-02T05:57:41.839Z,99955.02
2018-10-02T06:00:11.084Z,99948.84
2018-10-02T06:02:39.970Z,99949.04
2018-10-02T06:05:09.332Z,99942.48
2018-10-02T06:07:38.523Z,99941.34
2018-10-02T06:10:08.359Z,99938.46
2018-10-02T06:12:37.549Z,99936.02
2018-10-02T06:15:06.753Z,99939.56
2018-10-02T06:17:35.609Z,99933.22
2018-10-02T06:20:04.691Z,99931.63
2018-10-02T06:22:33.466Z,99930.61
2018-10-02T06:25:02.442Z,99936.19
2018-10-02T06:27:31.358Z,99940.12
2018-10-02T06:30:00.078Z,99939.85
2018-10-02T06:32:28.800Z,99933.30
2018-10-02T06:34:57.588Z,99937.14
2018-10-02T06:37:26.638Z,99929.45
2018-10-02T06:39:55.854Z,99929.38
2018-10-02T06:42:25.340Z,99929.75
2018-10-02T06:44:54.756Z,99927.58
2018-10-02T06:47:24.053Z,99929.82
2018-10-02T06:49:53.127Z,99932.82
2018-10-02T06:52:22.304Z,99932.25
2018-10-02T06:54:51.064Z,99928.15
2018-10-02T06:57:20.460Z,99927.02
2018-10-02T06:59:49.452Z,99923.77
2018-10-02T07:02:18.602Z,99921.90
2018-10-02T07:04:47.568Z,99920.30
2018-10-02T07:07:16.692Z,99919.53
2018-10-02T07:09:45.812Z,99915.62
2018-10-02T07:12:15.262Z,99919.75
2018-10-02T07:14:44.340Z,99920.75
2018-10-02T07:17:13.144Z,99921.89
2018-10-02T07:19:42.168Z,99919.25
2018-10-02T07:22:11.169Z,99914.17
2018-10-02T07:24:40.135Z,99914.39
2018-10-02T07:27:09.601Z,99916.23
2018-10-02T07:29:38.767Z,99912.77
2018-10-02T07:32:07.796Z,99911.08
2018-10-02T07:34:37.129Z,99906.12
2018-10-02T07:37:06.421Z,99910.24
2018-10-02T07:39:35.568Z,99909.59
2018-10-02T07:42:04.389Z,99912.38
2018-10-02T07:44:33.603Z,99902.71
2018-10-02T07:47:02.574Z,99899.22
2018-10-02T07:49:31.519Z,99907.28
2018-10-02T07:52:00.601Z,99900.72
2018-10-02T07:54:29.392Z,99902.69
2018-10-02T07:56:58.143Z,99902.03
2018-10-02T07:59:27.183Z,99903.18
2018-10-02T08:01:56.013Z,99904.19
2018-10-02T08:04:24.942Z,99901.37
2018-10-02T08:06:54.023Z,99901.37
2018-10-02T08:09:22.799Z,99901.66
2018-10-02T08:11:51.788Z,99902.84
2018-10-02T08:14:21.048Z,99902.97
2018-10-02T08:16:50.038Z,99903.46
2018-10-02T08:19:18.929Z,99903.93
2018-10-02T08:21:47.839Z,99898.47
2018-10-02T08:24:16.679Z,99901.94
2018-10-02T08:26:45.948Z,99896.41
2018-10-02T08:29:14.997Z,99895.38
2018-10-02T08:31:43.993Z,99896.41
2018-10-02T08:34:12.789Z,99892.58
2018-10-02T08:36:41.517Z,99892.20
2018-10-02T08:39:11.300Z,99887.86
2018-10-02T08:41:40.844Z,99890.48
2018-10-02T08:44:09.870Z,99884.77
2018-10-02T08:46:38.963Z,99885.42
2018-10-02T08:49:07.855Z,99885.05
2018-10-02T08:51:37.117Z,99885.52
2018-10-02T08:54:06.103Z,99885.21
2018-10-02T08:56:34.805Z,99891.02
2018-10-02T08:59:03.743Z,99885.11
2018-10-02T09:01:32.501Z,99886.02
2018-10-02T09:04:01.159Z,99877.45
2018-10-02T09:06:29.900Z,99875.03
2018-10-02T09:08:59.026Z,99869.64
2018-10-02T09:11:28.395Z,99879.05
2018-10-02T09:13:57.181Z,99880.05
2018-10-02T09:16:26.096Z,99878.91
2018-10-02T09:18:55.604Z,99875.27
2018-10-02T09:21:24.495Z,99875.81
2018-10-02T09:23:53.389Z,99871.61
2018-10-02T09:26:22.197Z,99871.23
2018-10-02T09:28:51.515Z,99874.97
2018-10-02T09:31:25.428Z,99875.22
2018-10-02T09:33:59.428Z,99865.55
2018-10-02T09:36:33.500Z,99871.70
2018-10-02T09:39:07.394Z,99874.88
2018-10-02T09:41:41.479Z,99866.88
2018-10-02T09:44:10.748Z,99869.44
2018-10-02T09:46:39.701Z,99872.30
2018-10-02T09:49:08.640Z,99863.67
2018-10-02T09:51:37.856Z,99863.91
2018-10-02T09:54:06.741Z,99867.94
2018-10-02T09:56:40.970Z,99866.20
2018-10-02T09:59:10.218Z,99870.70
2018-10-02T10:01:44.677Z,99872.77
2018-10-02T10:04:14.275Z,99860.78
2018-10-02T10:06:43.654Z,99860.91
2018-10-02T10:09:13.234Z,99860.63
2018-10-02T10:11:42.888Z,99864.14
2018-10-02T10:14:11.994Z,99859.41
2018-10-02T10:16:41.092Z,99856.27
2018-10-02T10:19:10.118Z,99857.58
2018-10-02T10:21:39.136Z,99856.59
2018-10-02T10:24:08.196Z,99856.16
2018-10-02T10:26:37.214Z,99862.94
2018-10-02T10:29:06.477Z,99856.78
2018-10-02T10:31:35.265Z,99857.95
2018-10-02T10:34:04.542Z,99860.21
2018-10-02T10:36:33.499Z,99858.27
2018-10-02T10:39:02.680Z,99859.11
2018-10-02T10:41:31.612Z,99858.47
2018-10-02T10:44:00.813Z,99860.52
2018-10-02T10:46:29.604Z,99865.20
2018-10-02T10:48:58.441Z,99863.29
2018-10-02T10:51:27.345Z,99859.86
2018-10-02T10:53:56.490Z,99860.25
2018-10-02T10:56:25.494Z,99865.41
2018-10-02T10:58:54.526Z,99855.42
2018-10-02T11:01:23.397Z,99862.31
2018-10-02T11:03:52.477Z,99855.97
2018-10-02T11:06:21.334Z,99856.08
2018-10-02T11:08:50.028Z,99853.92
2018-10-02T11:11:18.993Z,99851.55
2018-10-02T11:13:48.046Z,99851.92
2018-10-02T11:16:16.972Z,99850.83
2018-10-02T11:18:46.236Z,99848.05
2018-10-02T11:21:15.272Z,99844.67
2018-10-02T11:23:44.393Z,99857.88
2018-10-02T11:26:13.320Z,99852.33
2018-10-02T11:28:42.197Z,99846.64
2018-10-02T11:31:11.271Z,99846.08
2018-10-02T11:33:40.304Z,99848.43
2018-10-02T11:36:09.277Z,99840.45
2018-10-02T11:38:38.458Z,99837.96
2018-10-02T11:41:07.316Z,99839.27
2018-10-02T11:43:36.266Z,99828.19
2018-10-02T11:46:05.441Z,99835.77
2018-10-02T11:48:34.145Z,99841.22
2018-10-02T11:51:03.190Z,99844.12
2018-10-02T11:53:32.270Z,99838.06
2018-10-02T11:56:01.283Z,99840.62
2018-10-02T11:58:30.217Z,99841.33
2018-10-02T12:00:59.052Z,99843.95
2018-10-02T12:03:28.318Z,99840.15
2018-10-02T12:05:56.991Z,99839.67
2018-10-02T12:08:25.967Z,99842.30
2018-10-02T12:10:54.774Z,99836.11
2018-10-02T12:13:23.738Z,99843.55
2018-10-02T12:15:52.590Z,99845.27
2018-10-02T12:18:21.232Z,99840.84
2018-10-02T12:20:50.222Z,99838.12
2018-10-02T12:23:18.962Z,99844.32
2018-10-02T12:29:20.553Z,99837.05
2018-10-02T12:31:49.797Z,99840.37
2018-10-02T12:34:18.898Z,99842.40
2018-10-02T12:36:48.053Z,99840.98
2018-10-02T12:39:16.967Z,99840.08
2018-10-02T12:41:45.762Z,99838.39
2018-10-02T12:44:15.212Z,99831.59
2018-10-02T12:46:44.115Z,99839.98
2018-10-02T12:49:13.146Z,99836.30
2018-10-02T12:51:42.246Z,99832.67
2018-10-02T12:54:11.140Z,99839.78
2018-10-02T12:56:39.981Z,99842.98
2018-10-02T12:59:08.609Z,99841.02
2018-10-02T13:01:37.483Z,99836.55
2018-10-02T13:04:06.409Z,99832.64
2018-10-02T13:06:35.740Z,99830.38
2018-10-02T13:09:05.709Z,99836.20
2018-10-02T13:11:34.556Z,99827.03
2018-10-02T13:14:03.258Z,99827.27
2018-10-02T13:16:32.243Z,99828.48
2018-10-02T13:19:01.104Z,99826.40
2018-10-02T13:21:29.949Z,99827.34
2018-10-02T13:23:58.987Z,99824.51
2018-10-02T13:26:28.234Z,99826.09
2018-10-02T13:28:57.174Z,99823.96
2018-10-02T13:31:26.036Z,99824.23
2018-10-02T13:33:54.900Z,99820.41
2018-10-02T13:36:23.745Z,99813.47
2018-10-02T13:38:52.755Z,99811.56
2018-10-02T13:41:21.687Z,99812.21
2018-10-02T13:43:50.556Z,99808.42
2018-10-02T13:46:19.489Z,99809.50
2018-10-02T13:48:48.895Z,99807.51
2018-10-02T13:51:17.885Z,99808.95
2018-10-02T13:53:47.034Z,99807.33
2018-10-02T13:56:16.028Z,99808.64
2018-10-02T13:58:45.035Z,99808.88
2018-10-02T14:01:13.834Z,99807.83
2018-10-02T14:03:42.889Z,99809.64
2018-10-02T14:06:11.656Z,99800.89
2018-10-02T14:08:40.722Z,99809.42
2018-10-02T14:11:10.237Z,99809.08
2018-10-02T14:13:39.779Z,99804.15
2018-10-02T14:16:08.867Z,99810.34
2018-10-02T14:18:37.960Z,99807.56
2018-10-02T14:21:07.310Z,99808.95
2018-10-02T14:23:36.350Z,99814.89
2018-10-02T14:26:05.174Z,99812.91
2018-10-02T14:28:33.981Z,99811.59
2018-10-02T14:31:02.987Z,99809.33
2018-10-02T14:33:31.968Z,99813.30
2018-10-02T14:36:01.755Z,99810.08
2018-10-02T14:38:31.516Z,99809.70
2018-10-02T14:41:00.565Z,99809.03
2018-10-02T14:43:29.273Z,99810.08
2018-10-02T14:45:58.432Z,99813.72
2018-10-02T14:48:27.753Z,99811.39
2018-10-02T14:50:57.111Z,99806.56
2018-10-02T14:53:26.416Z,99811.44
2018-10-02T14:55:55.550Z,99806.23
2018-10-02T14:58:25.733Z,99808.16
2018-10-02T15:00:55.683Z,99817.44
2018-10-02T15:03:24.825Z,99812.85
2018-10-02T15:05:54.005Z,99820.53
2018-10-02T15:08:23.131Z,99811.81
2018-10-02T15:10:52.878Z,99819.69
2018-10-02T15:13:21.789Z,99819.02
2018-10-02T15:15:50.992Z,99821.27
2018-10-02T15:18:20.262Z,99826.63
2018-10-02T15:20:49.205Z,99833.08
2018-10-02T15:23:18.810Z,99830.38
2018-10-02T15:25:47.943Z,99835.48
2018-10-02T15:28:16.890Z,99833.84
2018-10-02T15:30:46.247Z,99835.48
2018-10-02T15:33:15.266Z,99828.55
2018-10-02T15:35:44.352Z,99830.05
2018-10-02T15:38:13.266Z,99835.09
2018-10-02T15:40:42.232Z,99836.45
2018-10-02T15:43:11.049Z,99835.89
2018-10-02T15:45:40.175Z,99835.52
2018-10-02T15:48:09.191Z,99838.88
2018-10-02T15:50:38.175Z,99840.98
2018-10-02T15:53:07.223Z,99841.08
2018-10-02T15:55:36.345Z,99846.85
2018-10-02T15:58:05.626Z,99841.64
2018-10-02T16:00:34.559Z,99840.17
2018-10-02T16:03:03.475Z,99841.42
2018-10-02T16:05:32.433Z,99844.70
2018-10-02T16:08:01.644Z,99842.57
2018-10-02T16:10:30.664Z,99845.22
2018-10-02T16:12:59.853Z,99848.08
2018-10-02T16:15:29.137Z,99843.66
2018-10-02T16:17:58.100Z,99845.46
2018-10-02T16:20:26.971Z,99843.83
2018-10-02T16:22:55.890Z,99845.96
2018-10-02T16:25:24.980Z,99849.90
2018-10-02T16:27:54.360Z,99843.19
2018-10-02T16:30:23.555Z,99846.11
2018-10-02T16:32:52.412Z,99845.73
2018-10-02T16:35:21.871Z,99840.05
2018-10-02T16:37:50.907Z,99841.61
2018-10-02T16:40:19.998Z,99841.06
2018-10-02T16:42:49.129Z,99839.38
2018-10-02T16:45:18.202Z,99840.30
2018-10-02T16:47:47.098Z,99838.23
2018-10-02T16:50:16.260Z,99843.47
2018-10-02T16:52:45.386Z,99842.06
2018-10-02T16:55:14.465Z,99844.50
2018-10-02T16:57:43.350Z,99846.18
2018-10-02T17:00:12.450Z,99843.06
2018-10-02T17:02:41.722Z,99838.20
2018-10-02T17:05:10.511Z,99842.48
2018-10-02T17:07:39.854Z,99841.08
2018-10-02T17:10:08.843Z,99837.98
2018-10-02T17:12:38.022Z,99837.05
2018-10-02T17:15:06.814Z,99839.82
2018-10-02T17:17:36.071Z,99829.89
2018-10-02T17:20:05.281Z,99839.61
2018-10-02T17:22:34.388Z,99836.98
2018-10-02T17:25:03.280Z,99835.06
2018-10-02T17:27:32.048Z,99835.97
2018-10-02T17:30:01.316Z,99843.23
2018-10-02T17:32:30.263Z,99839.36
2018-10-02T17:35:00.437Z,99844.55
2018-10-02T17:37:29.615Z,99845.86
2018-10-02T17:39:59.968Z,99853.69
2018-10-02T17:42:33.269Z,99849.00
2018-10-02T17:45:07.288Z,99848.97
2018-10-02T17:47:38.711Z,99849.81
2018-10-02T17:50:08.111Z,99849.54
2018-10-02T17:52:37.717Z,99849.35
2018-10-02T17:55:06.932Z,99851.22
2018-10-02T17:57:37.154Z,99853.30
2018-10-02T18:00:08.429Z,99858.37
2018-10-02T18:02:38.330Z,99859.67
2018-10-02T18:05:07.828Z,99856.10
2018-10-02T18:07:37.434Z,99855.33
2018-10-02T18:10:06.742Z,99864.73
2018-10-02T18:12:35.989Z,99861.94
2018-10-02T18:15:05.223Z,99862.36
2018-10-02T18:17:34.517Z,99870.20
2018-10-02T18:20:03.978Z,99869.23
2018-10-02T18:22:33.924Z,99869.64
2018-10-02T18:25:04.866Z,99876.17
2018-10-02T18:27:34.011Z,99846.03
2018-10-02T18:30:02.910Z,99871.73
2018-10-02T18:32:33.652Z,99873.69
2018-10-02T18:35:06.960Z,99875.30
2018-10-02T18:37:35.895Z,99872.69
2018-10-02T18:40:05.725Z,99872.81
2018-10-02T18:42:35.553Z,99870.42
2018-10-02T18:45:04.779Z,99865.94
2018-10-02T18:47:36.001Z,99867.47
2018-10-02T18:50:05.450Z,99872.42
2018-10-02T18:52:35.817Z,99870.30
2018-10-02T18:55:05.326Z,99867.53
2018-10-02T18:57:35.581Z,99867.16
2018-10-02T19:00:05.248Z,99871.61
2018-10-02T19:02:34.945Z,99867.58
2018-10-02T19:05:04.844Z,99867.28
2018-10-02T19:07:33.888Z,99871.84
2018-10-02T19:10:03.700Z,99874.50
2018-10-02T19:12:33.137Z,99869.55
2018-10-02T19:15:02.163Z,99872.51
2018-10-02T19:17:31.674Z,99869.39
2018-10-02T19:21:05.572Z,99866.20
2018-10-02T19:23:35.536Z,99866.74
2018-10-02T19:26:11.073Z,99873.91
2018-10-02T19:28:40.383Z,99872.53
2018-10-02T19:31:14.792Z,99872.15
2018-10-02T19:33:47.389Z,99875.22
2018-10-02T19:36:17.841Z,99884.89
2018-10-02T19:38:52.303Z,99890.03
2018-10-02T19:41:21.576Z,99886.20
2018-10-02T19:43:50.843Z,99884.28
2018-10-02T19:46:24.409Z,99890.11
2018-10-02T19:48:55.098Z,99890.11
2018-10-02T19:51:29.394Z,99900.73
2018-10-02T19:54:00.325Z,99891.27
2018-10-02T19:56:29.459Z,99891.43
2018-10-02T19:58:58.657Z,99889.41
2018-10-02T20:01:27.885Z,99895.39
2018-10-02T20:03:57.259Z,99893.74
2018-10-02T20:06:26.542Z,99886.09
2018-10-02T20:08:55.702Z,99894.89
2018-10-02T20:11:25.042Z,99888.36
2018-10-02T20:13:54.519Z,99893.63
2018-10-02T20:16:23.505Z,99894.77
2018-10-02T20:18:53.875Z,99895.57
2018-10-02T20:21:23.126Z,99897.48
2018-10-02T20:23:52.248Z,99897.42
2018-10-02T20:26:21.285Z,99897.83
2018-10-02T20:28:50.296Z,99894.02
2018-10-02T20:31:20.707Z,99900.95
2018-10-02T20:33:49.764Z,99895.36
2018-10-02T20:36:18.997Z,99900.26
2018-10-02T20:38:47.730Z,99901.19
2018-10-02T20:41:16.488Z,99903.60
2018-10-02T20:43:46.294Z,99895.51
2018-10-02T20:46:15.867Z,99903.81
2018-10-02T20:48:44.734Z,99906.70
2018-10-02T20:51:13.896Z,99901.77
2018-10-02T20:53:43.116Z,99904.76
2018-10-02T20:56:12.100Z,99908.86
2018-10-02T20:58:40.866Z,99901.02
2018-10-02T21:01:09.733Z,99907.55
2018-10-02T21:03:39.429Z,99909.63
2018-10-02T21:06:08.882Z,99912.78
2018-10-02T21:08:38.598Z,99913.37
2018-10-02T21:11:08.591Z,99916.99
2018-10-02T21:13:37.964Z,99779.72
2018-10-02T21:16:07.410Z,99914.30
2018-10-02T21:18:37.689Z,99915.85
2018-10-02T21:21:06.787Z,99914.55
2018-10-02T21:23:35.774Z,99920.08
2018-10-02T21:26:05.217Z,99915.59
2018-10-02T21:28:34.601Z,99925.20
2018-10-02T21:31:03.521Z,99923.98
2018-10-02T21:33:32.983Z,99927.80
2018-10-02T21:36:01.899Z,99927.98
2018-10-02T21:38:31.872Z,99927.91
2018-10-02T21:41:00.847Z,99925.57
2018-10-02T21:43:29.512Z,99923.96
2018-10-02T21:45:58.685Z,99936.09
2018-10-02T21:48:27.910Z,99940.58
2018-10-02T21:50:57.188Z,99949.73
2018-10-02T21:53:26.643Z,99945.89
2018-10-02T21:55:56.052Z,99945.42
2018-10-02T21:58:25.791Z,99950.47
2018-10-02T22:00:58.618Z,99949.91
2018-10-02T22:03:27.603Z,99947.45
2018-10-02T22:05:56.626Z,99959.38
2018-10-02T22:08:25.437Z,99951.83
2018-10-02T22:10:54.394Z,99949.68
2018-10-02T22:13:27.011Z,99959.59
2018-10-02T22:15:57.294Z,99951.18
2018-10-02T22:18:26.290Z,99959.84
2018-10-02T22:20:56.242Z,99957.52
2018-10-02T22:23:25.383Z,99967.74
2018-10-02T22:25:54.888Z,99962.59
2018-10-02T22:28:23.921Z,99971.52
2018-10-02T22:30:53.028Z,99968.52
2018-10-02T22:33:22.072Z,99965.37
2018-10-02T22:35:52.257Z,99978.66
2018-10-02T22:38:21.596Z,99984.63
2018-10-02T22:40:50.899Z,99970.98
2018-10-02T22:43:19.964Z,99971.52
2018-10-02T22:45:49.350Z,99977.79
2018-10-02T22:48:18.406Z,99984.98
2018-10-02T22:50:47.631Z,99979.83
2018-10-02T22:53:16.976Z,99980.05
2018-10-02T22:55:46.001Z,99976.78
2018-10-02T22:58:14.945Z,99987.81
2018-10-02T23:00:43.814Z,99992.77
2018-10-02T23:03:12.722Z,99991.84
2018-10-02T23:05:41.731Z,99988.00
2018-10-02T23:08:10.889Z,99995.08
2018-10-02T23:10:40.115Z,99989.59
2018-10-02T23:13:09.106Z,99990.59
2018-10-02T23:15:38.186Z,99983.02
2018-10-02T23:18:07.232Z,99987.78
2018-10-02T23:21:38.735Z,99994.78
2018-10-02T23:24:08.232Z,99995.59
2018-10-02T23:26:38.761Z,100001.33
2018-10-02T23:29:07.879Z,99998.95
2018-10-02T23:31:37.071Z,99995.91
2018-10-02T23:34:06.025Z,100000.47
2018-10-02T23:36:34.988Z,100006.50
2018-10-02T23:39:04.940Z,100006.12
2018-10-02T23:41:34.903Z,100004.04
2018-10-02T23:44:03.954Z,100007.77
2018-10-02T23:46:32.706Z,100012.22
2018-10-02T23:49:01.600Z,100014.30
2018-10-02T23:51:30.481Z,100015.14
2018-10-02T23:53:59.570Z,100015.75
2018-10-02T23:56:28.872Z,100016.59
2018-10-02T23:58:57.603Z,100024.36
